sensor_id;sensor_type;location;lat;lon;timestamp;P1;durP1;ratioP1;P2;durP2;ratioP2
64907;SDS011;64365;-1.756;110.040;2022-12-19T00:01:51;44.03;;;24.70;;
64907;SDS011;64365;-1.756;110.040;2022-12-19T00:04:19;44.35;;;25.10;;
64907;SDS011;64365;-1.756;110.040;2022-12-19T00:06:46;48.33;;;24.55;;
64907;SDS011;64365;-1.756;110.040;2022-12-19T00:09:13;49.10;;;25.90;;
64907;SDS011;64365;-1.756;110.040;2022-12-19T00:11:39;42.08;;;22.05;;
64907;SDS011;64365;-1.756;110.040;2022-12-19T00:14:07;41.60;;;21.08;;
64907;SDS011;64365;-1.756;110.040;2022-12-19T00:16:35;45.28;;;24.20;;
64907;SDS011;64365;-1.756;110.040;2022-12-19T00:19:02;41.38;;;24.23;;
64907;SDS011;64365;-1.756;110.040;2022-12-19T00:21:31;45.63;;;25.17;;
64907;SDS011;64365;-1.756;110.040;2022-12-19T00:23:59;38.63;;;22.38;;
64907;SDS011;64365;-1.756;110.040;2022-12-19T00:26:26;42.63;;;24.40;;
64907;SDS011;64365;-1.756;110.040;2022-12-19T00:28:54;41.90;;;22.75;;
64907;SDS011;64365;-1.756;110.040;2022-12-19T00:31:23;39.95;;;22.20;;
64907;SDS011;64365;-1.756;110.040;2022-12-19T00:33:51;37.20;;;20.30;;
64907;SDS011;64365;-1.756;110.040;2022-12-19T00:36:18;43.10;;;22.55;;
64907;SDS011;64365;-1.756;110.040;2022-12-19T00:38:47;39.97;;;21.92;;
64907;SDS011;64365;-1.756;110.040;2022-12-19T00:41:15;38.33;;;20.70;;
64907;SDS011;64365;-1.756;110.040;2022-12-19T00:43:43;44.72;;;21.60;;
64907;SDS011;64365;-1.756;110.040;2022-12-19T00:46:10;37.50;;;20.88;;
64907;SDS011;64365;-1.756;110.040;2022-12-19T00:48:39;36.42;;;19.75;;
64907;SDS011;64365;-1.756;110.040;2022-12-19T00:51:07;42.72;;;23.83;;
64907;SDS011;64365;-1.756;110.040;2022-12-19T00:53:36;41.05;;;21.02;;
64907;SDS011;64365;-1.756;110.040;2022-12-19T00:56:05;39.65;;;22.55;;
64907;SDS011;64365;-1.756;110.040;2022-12-19T00:58:33;38.72;;;20.33;;
64907;SDS011;64365;-1.756;110.040;2022-12-19T01:01:03;37.58;;;20.42;;
64907;SDS011;64365;-1.756;110.040;2022-12-19T01:03:31;32.75;;;18.58;;
64907;SDS011;64365;-1.756;110.040;2022-12-19T01:05:57;35.05;;;20.25;;
64907;SDS011;64365;-1.756;110.040;2022-12-19T01:08:24;33.20;;;18.17;;
64907;SDS011;64365;-1.756;110.040;2022-12-19T01:10:50;30.70;;;18.30;;
64907;SDS011;64365;-1.756;110.040;2022-12-19T01:13:19;36.45;;;20.45;;
64907;SDS011;64365;-1.756;110.040;2022-12-19T01:15:45;35.67;;;20.58;;
64907;SDS011;64365;-1.756;110.040;2022-12-19T01:18:12;33.42;;;18.15;;
64907;SDS011;64365;-1.756;110.040;2022-12-19T01:20:39;32.33;;;19.95;;
64907;SDS011;64365;-1.756;110.040;2022-12-19T01:23:07;31.08;;;18.55;;
64907;SDS011;64365;-1.756;110.040;2022-12-19T01:25:35;33.95;;;18.60;;
64907;SDS011;64365;-1.756;110.040;2022-12-19T01:28:03;37.78;;;20.60;;
64907;SDS011;64365;-1.756;110.040;2022-12-19T01:30:32;41.03;;;20.67;;
64907;SDS011;64365;-1.756;110.040;2022-12-19T01:32:59;38.30;;;20.60;;
64907;SDS011;64365;-1.756;110.040;2022-12-19T01:35:27;35.80;;;21.50;;
64907;SDS011;64365;-1.756;110.040;2022-12-19T01:37:53;35.28;;;20.05;;
64907;SDS011;64365;-1.756;110.040;2022-12-19T01:40:20;38.42;;;20.83;;
64907;SDS011;64365;-1.756;110.040;2022-12-19T01:42:47;35.42;;;20.08;;
64907;SDS011;64365;-1.756;110.040;2022-12-19T01:45:25;38.13;;;22.35;;
64907;SDS011;64365;-1.756;110.040;2022-12-19T01:47:55;34.03;;;21.30;;
64907;SDS011;64365;-1.756;110.040;2022-12-19T01:50:31;39.03;;;21.10;;
64907;SDS011;64365;-1.756;110.040;2022-12-19T01:53:01;40.08;;;22.67;;
64907;SDS011;64365;-1.756;110.040;2022-12-19T01:55:30;40.42;;;21.08;;
64907;SDS011;64365;-1.756;110.040;2022-12-19T01:57:56;39.38;;;21.85;;
64907;SDS011;64365;-1.756;110.040;2022-12-19T02:00:25;38.28;;;22.67;;
64907;SDS011;64365;-1.756;110.040;2022-12-19T02:02:52;36.88;;;23.17;;
64907;SDS011;64365;-1.756;110.040;2022-12-19T02:05:23;46.10;;;24.52;;
64907;SDS011;64365;-1.756;110.040;2022-12-19T02:07:50;45.83;;;23.63;;
64907;SDS011;64365;-1.756;110.040;2022-12-19T02:10:17;39.80;;;22.10;;
64907;SDS011;64365;-1.756;110.040;2022-12-19T02:12:44;43.03;;;22.75;;
64907;SDS011;64365;-1.756;110.040;2022-12-19T02:15:11;47.03;;;23.33;;
64907;SDS011;64365;-1.756;110.040;2022-12-19T02:17:43;45.45;;;22.95;;
64907;SDS011;64365;-1.756;110.040;2022-12-19T02:23:45;42.75;;;23.88;;
64907;SDS011;64365;-1.756;110.040;2022-12-19T02:32:28;42.83;;;21.98;;
64907;SDS011;64365;-1.756;110.040;2022-12-19T02:35:03;45.35;;;23.27;;
64907;SDS011;64365;-1.756;110.040;2022-12-19T02:37:38;45.78;;;23.50;;
64907;SDS011;64365;-1.756;110.040;2022-12-19T02:42:41;43.10;;;22.55;;
64907;SDS011;64365;-1.756;110.040;2022-12-19T02:45:14;39.83;;;21.55;;
64907;SDS011;64365;-1.756;110.040;2022-12-19T02:47:44;39.58;;;20.95;;
64907;SDS011;64365;-1.756;110.040;2022-12-19T02:50:13;46.38;;;23.33;;
64907;SDS011;64365;-1.756;110.040;2022-12-19T02:52:42;44.17;;;23.13;;
64907;SDS011;64365;-1.756;110.040;2022-12-19T02:55:12;37.67;;;20.52;;
64907;SDS011;64365;-1.756;110.040;2022-12-19T03:00:34;36.30;;;19.80;;
64907;SDS011;64365;-1.756;110.040;2022-12-19T03:03:11;33.22;;;18.77;;
64907;SDS011;64365;-1.756;110.040;2022-12-19T03:05:49;35.25;;;18.02;;
64907;SDS011;64365;-1.756;110.040;2022-12-19T03:08:27;34.58;;;18.35;;
64907;SDS011;64365;-1.756;110.040;2022-12-19T03:11:01;33.25;;;17.95;;
64907;SDS011;64365;-1.756;110.040;2022-12-19T03:13:31;35.30;;;19.65;;
64907;SDS011;64365;-1.756;110.040;2022-12-19T03:16:00;32.92;;;18.70;;
64907;SDS011;64365;-1.756;110.040;2022-12-19T03:18:29;29.23;;;17.40;;
64907;SDS011;64365;-1.756;110.040;2022-12-19T03:20:58;32.80;;;17.05;;
64907;SDS011;64365;-1.756;110.040;2022-12-19T03:23:31;33.90;;;18.73;;
64907;SDS011;64365;-1.756;110.040;2022-12-19T03:26:00;35.80;;;18.90;;
64907;SDS011;64365;-1.756;110.040;2022-12-19T03:28:33;32.75;;;17.80;;
64907;SDS011;64365;-1.756;110.040;2022-12-19T03:31:04;35.95;;;18.60;;
64907;SDS011;64365;-1.756;110.040;2022-12-19T03:33:35;28.13;;;16.13;;
64907;SDS011;64365;-1.756;110.040;2022-12-19T03:36:05;33.50;;;17.58;;
64907;SDS011;64365;-1.756;110.040;2022-12-19T03:38:35;27.77;;;15.13;;
64907;SDS011;64365;-1.756;110.040;2022-12-19T03:41:05;29.63;;;16.30;;
64907;SDS011;64365;-1.756;110.040;2022-12-19T03:43:36;31.77;;;18.05;;
64907;SDS011;64365;-1.756;110.040;2022-12-19T03:46:04;28.60;;;16.35;;
64907;SDS011;64365;-1.756;110.040;2022-12-19T03:48:40;32.95;;;16.67;;
64907;SDS011;64365;-1.756;110.040;2022-12-19T03:51:12;26.60;;;16.08;;
64907;SDS011;64365;-1.756;110.040;2022-12-19T03:53:47;29.02;;;16.25;;
64907;SDS011;64365;-1.756;110.040;2022-12-19T03:56:25;26.55;;;14.48;;
64907;SDS011;64365;-1.756;110.040;2022-12-19T03:58:59;28.48;;;15.60;;
64907;SDS011;64365;-1.756;110.040;2022-12-19T04:01:29;25.33;;;14.15;;
64907;SDS011;64365;-1.756;110.040;2022-12-19T04:04:00;22.85;;;14.20;;
64907;SDS011;64365;-1.756;110.040;2022-12-19T04:06:29;22.88;;;13.52;;
64907;SDS011;64365;-1.756;110.040;2022-12-19T04:08:58;20.85;;;13.30;;
64907;SDS011;64365;-1.756;110.040;2022-12-19T04:11:25;21.00;;;12.18;;
64907;SDS011;64365;-1.756;110.040;2022-12-19T04:13:56;21.58;;;12.40;;
64907;SDS011;64365;-1.756;110.040;2022-12-19T04:16:28;20.40;;;11.85;;
64907;SDS011;64365;-1.756;110.040;2022-12-19T04:19:03;16.75;;;10.60;;
64907;SDS011;64365;-1.756;110.040;2022-12-19T04:21:37;18.35;;;10.57;;
64907;SDS011;64365;-1.756;110.040;2022-12-19T04:24:09;15.45;;;10.20;;
64907;SDS011;64365;-1.756;110.040;2022-12-19T04:26:41;18.20;;;11.82;;
64907;SDS011;64365;-1.756;110.040;2022-12-19T04:29:10;16.65;;;10.88;;
64907;SDS011;64365;-1.756;110.040;2022-12-19T04:31:38;15.70;;;10.65;;
64907;SDS011;64365;-1.756;110.040;2022-12-19T04:34:07;18.08;;;11.52;;
64907;SDS011;64365;-1.756;110.040;2022-12-19T04:36:33;17.83;;;11.13;;
64907;SDS011;64365;-1.756;110.040;2022-12-19T04:39:00;16.80;;;11.10;;
64907;SDS011;64365;-1.756;110.040;2022-12-19T04:41:27;17.42;;;11.40;;
64907;SDS011;64365;-1.756;110.040;2022-12-19T04:43:53;19.45;;;11.38;;
64907;SDS011;64365;-1.756;110.040;2022-12-19T04:46:20;18.98;;;11.07;;
64907;SDS011;64365;-1.756;110.040;2022-12-19T04:48:47;19.73;;;10.55;;
64907;SDS011;64365;-1.756;110.040;2022-12-19T04:51:15;17.60;;;11.65;;
64907;SDS011;64365;-1.756;110.040;2022-12-19T04:53:42;17.85;;;11.55;;
64907;SDS011;64365;-1.756;110.040;2022-12-19T04:56:08;18.08;;;11.40;;
64907;SDS011;64365;-1.756;110.040;2022-12-19T04:58:35;17.77;;;12.00;;
64907;SDS011;64365;-1.756;110.040;2022-12-19T05:01:02;18.67;;;11.35;;
64907;SDS011;64365;-1.756;110.040;2022-12-19T05:03:30;16.00;;;10.95;;
64907;SDS011;64365;-1.756;110.040;2022-12-19T05:06:04;18.15;;;11.75;;
64907;SDS011;64365;-1.756;110.040;2022-12-19T05:08:33;15.10;;;10.30;;
64907;SDS011;64365;-1.756;110.040;2022-12-19T05:11:00;15.23;;;10.45;;
64907;SDS011;64365;-1.756;110.040;2022-12-19T05:13:27;14.52;;;10.07;;
64907;SDS011;64365;-1.756;110.040;2022-12-19T05:15:57;15.65;;;10.60;;
64907;SDS011;64365;-1.756;110.040;2022-12-19T05:18:26;17.98;;;10.07;;
64907;SDS011;64365;-1.756;110.040;2022-12-19T05:20:53;16.58;;;10.52;;
64907;SDS011;64365;-1.756;110.040;2022-12-19T05:23:20;12.35;;;8.85;;
64907;SDS011;64365;-1.756;110.040;2022-12-19T05:25:48;14.18;;;9.98;;
64907;SDS011;64365;-1.756;110.040;2022-12-19T05:28:16;13.85;;;9.52;;
64907;SDS011;64365;-1.756;110.040;2022-12-19T05:30:44;15.20;;;10.27;;
64907;SDS011;64365;-1.756;110.040;2022-12-19T05:33:11;12.88;;;8.55;;
64907;SDS011;64365;-1.756;110.040;2022-12-19T05:35:37;11.88;;;8.70;;
64907;SDS011;64365;-1.756;110.040;2022-12-19T05:38:04;14.43;;;10.02;;
64907;SDS011;64365;-1.756;110.040;2022-12-19T05:40:31;19.00;;;9.77;;
64907;SDS011;64365;-1.756;110.040;2022-12-19T05:42:59;12.95;;;8.55;;
64907;SDS011;64365;-1.756;110.040;2022-12-19T05:45:26;12.95;;;8.80;;
64907;SDS011;64365;-1.756;110.040;2022-12-19T05:47:52;14.02;;;9.50;;
64907;SDS011;64365;-1.756;110.040;2022-12-19T05:50:19;14.50;;;9.70;;
64907;SDS011;64365;-1.756;110.040;2022-12-19T05:52:46;13.27;;;9.27;;
64907;SDS011;64365;-1.756;110.040;2022-12-19T05:55:12;12.50;;;9.77;;
64907;SDS011;64365;-1.756;110.040;2022-12-19T05:57:39;14.57;;;10.18;;
64907;SDS011;64365;-1.756;110.040;2022-12-19T06:00:08;12.07;;;8.90;;
64907;SDS011;64365;-1.756;110.040;2022-12-19T06:02:35;14.93;;;10.13;;
64907;SDS011;64365;-1.756;110.040;2022-12-19T06:05:02;13.77;;;10.30;;
64907;SDS011;64365;-1.756;110.040;2022-12-19T06:07:29;15.65;;;10.70;;
64907;SDS011;64365;-1.756;110.040;2022-12-19T06:09:56;17.27;;;11.00;;
64907;SDS011;64365;-1.756;110.040;2022-12-19T06:12:23;14.57;;;10.43;;
64907;SDS011;64365;-1.756;110.040;2022-12-19T06:14:49;13.60;;;9.20;;
64907;SDS011;64365;-1.756;110.040;2022-12-19T06:17:17;14.80;;;10.98;;
64907;SDS011;64365;-1.756;110.040;2022-12-19T06:19:44;12.82;;;9.27;;
64907;SDS011;64365;-1.756;110.040;2022-12-19T06:22:10;14.30;;;9.68;;
64907;SDS011;64365;-1.756;110.040;2022-12-19T06:24:37;14.48;;;10.75;;
64907;SDS011;64365;-1.756;110.040;2022-12-19T06:27:04;14.13;;;10.18;;
64907;SDS011;64365;-1.756;110.040;2022-12-19T06:29:30;15.02;;;10.63;;
64907;SDS011;64365;-1.756;110.040;2022-12-19T06:31:57;13.05;;;9.65;;
64907;SDS011;64365;-1.756;110.040;2022-12-19T06:34:25;11.30;;;8.75;;
64907;SDS011;64365;-1.756;110.040;2022-12-19T06:36:52;14.07;;;9.93;;
64907;SDS011;64365;-1.756;110.040;2022-12-19T06:39:19;15.27;;;9.63;;
64907;SDS011;64365;-1.756;110.040;2022-12-19T06:41:45;15.63;;;11.15;;
64907;SDS011;64365;-1.756;110.040;2022-12-19T06:44:35;13.70;;;9.63;;
64907;SDS011;64365;-1.756;110.040;2022-12-19T06:47:01;14.80;;;9.98;;
64907;SDS011;64365;-1.756;110.040;2022-12-19T06:49:30;12.15;;;9.70;;
64907;SDS011;64365;-1.756;110.040;2022-12-19T06:51:56;14.25;;;10.05;;
64907;SDS011;64365;-1.756;110.040;2022-12-19T06:54:24;13.23;;;9.77;;
64907;SDS011;64365;-1.756;110.040;2022-12-19T06:56:51;13.65;;;9.98;;
64907;SDS011;64365;-1.756;110.040;2022-12-19T06:59:18;12.27;;;9.15;;
64907;SDS011;64365;-1.756;110.040;2022-12-19T07:01:52;15.65;;;9.27;;
64907;SDS011;64365;-1.756;110.040;2022-12-19T07:04:24;16.02;;;10.05;;
64907;SDS011;64365;-1.756;110.040;2022-12-19T07:06:56;14.43;;;9.98;;
64907;SDS011;64365;-1.756;110.040;2022-12-19T07:09:24;12.77;;;9.90;;
64907;SDS011;64365;-1.756;110.040;2022-12-19T07:11:51;15.95;;;10.80;;
64907;SDS011;64365;-1.756;110.040;2022-12-19T07:14:18;14.32;;;10.43;;
64907;SDS011;64365;-1.756;110.040;2022-12-19T07:16:45;16.00;;;11.98;;
64907;SDS011;64365;-1.756;110.040;2022-12-19T07:19:12;19.85;;;11.32;;
64907;SDS011;64365;-1.756;110.040;2022-12-19T07:21:40;16.75;;;11.25;;
64907;SDS011;64365;-1.756;110.040;2022-12-19T07:24:08;19.35;;;12.95;;
64907;SDS011;64365;-1.756;110.040;2022-12-19T07:26:37;18.17;;;12.10;;
64907;SDS011;64365;-1.756;110.040;2022-12-19T07:29:03;17.63;;;13.02;;
64907;SDS011;64365;-1.756;110.040;2022-12-19T07:31:30;17.15;;;11.40;;
64907;SDS011;64365;-1.756;110.040;2022-12-19T07:33:57;19.05;;;12.88;;
64907;SDS011;64365;-1.756;110.040;2022-12-19T07:36:23;18.17;;;13.05;;
64907;SDS011;64365;-1.756;110.040;2022-12-19T07:38:50;20.75;;;12.80;;
64907;SDS011;64365;-1.756;110.040;2022-12-19T07:41:18;15.68;;;11.77;;
64907;SDS011;64365;-1.756;110.040;2022-12-19T07:43:44;16.98;;;11.40;;
64907;SDS011;64365;-1.756;110.040;2022-12-19T07:46:11;19.58;;;13.18;;
64907;SDS011;64365;-1.756;110.040;2022-12-19T07:48:38;15.90;;;11.00;;
64907;SDS011;64365;-1.756;110.040;2022-12-19T07:51:05;16.35;;;10.95;;
64907;SDS011;64365;-1.756;110.040;2022-12-19T07:53:32;17.35;;;11.68;;
64907;SDS011;64365;-1.756;110.040;2022-12-19T07:55:58;16.00;;;11.30;;
64907;SDS011;64365;-1.756;110.040;2022-12-19T07:58:26;16.00;;;11.30;;
64907;SDS011;64365;-1.756;110.040;2022-12-19T08:00:53;21.27;;;11.98;;
64907;SDS011;64365;-1.756;110.040;2022-12-19T08:03:21;13.95;;;9.32;;
64907;SDS011;64365;-1.756;110.040;2022-12-19T08:05:47;15.70;;;10.40;;
64907;SDS011;64365;-1.756;110.040;2022-12-19T08:08:14;15.35;;;9.73;;
64907;SDS011;64365;-1.756;110.040;2022-12-19T08:10:41;15.85;;;9.73;;
64907;SDS011;64365;-1.756;110.040;2022-12-19T08:13:08;17.52;;;10.65;;
64907;SDS011;64365;-1.756;110.040;2022-12-19T08:15:35;17.38;;;11.10;;
64907;SDS011;64365;-1.756;110.040;2022-12-19T08:18:02;18.60;;;10.23;;
64907;SDS011;64365;-1.756;110.040;2022-12-19T08:20:29;19.10;;;10.48;;
64907;SDS011;64365;-1.756;110.040;2022-12-19T08:22:56;14.63;;;9.65;;
64907;SDS011;64365;-1.756;110.040;2022-12-19T08:25:22;13.52;;;10.10;;
64907;SDS011;64365;-1.756;110.040;2022-12-19T08:27:49;15.88;;;10.10;;
64907;SDS011;64365;-1.756;110.040;2022-12-19T08:30:16;14.75;;;10.15;;
64907;SDS011;64365;-1.756;110.040;2022-12-19T08:32:45;16.05;;;10.05;;
64907;SDS011;64365;-1.756;110.040;2022-12-19T08:35:12;16.92;;;11.15;;
64907;SDS011;64365;-1.756;110.040;2022-12-19T08:37:38;13.77;;;10.02;;
64907;SDS011;64365;-1.756;110.040;2022-12-19T08:40:06;15.23;;;10.45;;
64907;SDS011;64365;-1.756;110.040;2022-12-19T08:42:33;16.77;;;11.07;;
64907;SDS011;64365;-1.756;110.040;2022-12-19T08:45:00;15.18;;;10.20;;
64907;SDS011;64365;-1.756;110.040;2022-12-19T08:47:26;14.63;;;10.30;;
64907;SDS011;64365;-1.756;110.040;2022-12-19T08:49:55;14.98;;;9.80;;
64907;SDS011;64365;-1.756;110.040;2022-12-19T08:52:21;13.82;;;10.32;;
64907;SDS011;64365;-1.756;110.040;2022-12-19T08:54:48;15.70;;;9.93;;
64907;SDS011;64365;-1.756;110.040;2022-12-19T08:57:15;16.13;;;10.10;;
64907;SDS011;64365;-1.756;110.040;2022-12-19T08:59:41;16.38;;;10.50;;
64907;SDS011;64365;-1.756;110.040;2022-12-19T09:02:08;17.90;;;10.35;;
64907;SDS011;64365;-1.756;110.040;2022-12-19T09:04:35;17.25;;;11.52;;
64907;SDS011;64365;-1.756;110.040;2022-12-19T09:07:03;13.93;;;10.85;;
64907;SDS011;64365;-1.756;110.040;2022-12-19T09:09:30;16.60;;;10.88;;
64907;SDS011;64365;-1.756;110.040;2022-12-19T09:11:56;13.82;;;9.88;;
64907;SDS011;64365;-1.756;110.040;2022-12-19T09:14:23;14.40;;;10.15;;
64907;SDS011;64365;-1.756;110.040;2022-12-19T09:16:49;17.50;;;10.55;;
64907;SDS011;64365;-1.756;110.040;2022-12-19T09:19:16;16.75;;;10.57;;
64907;SDS011;64365;-1.756;110.040;2022-12-19T09:21:43;13.60;;;9.95;;
64907;SDS011;64365;-1.756;110.040;2022-12-19T09:24:11;12.90;;;9.48;;
64907;SDS011;64365;-1.756;110.040;2022-12-19T09:26:37;20.08;;;10.45;;
64907;SDS011;64365;-1.756;110.040;2022-12-19T09:29:06;13.55;;;9.45;;
64907;SDS011;64365;-1.756;110.040;2022-12-19T09:31:32;13.90;;;9.85;;
64907;SDS011;64365;-1.756;110.040;2022-12-19T09:33:59;14.15;;;10.05;;
64907;SDS011;64365;-1.756;110.040;2022-12-19T09:36:27;15.32;;;9.38;;
64907;SDS011;64365;-1.756;110.040;2022-12-19T09:38:54;16.33;;;9.82;;
64907;SDS011;64365;-1.756;110.040;2022-12-19T09:41:38;18.27;;;10.32;;
64907;SDS011;64365;-1.756;110.040;2022-12-19T09:46:53;11.18;;;7.97;;
64907;SDS011;64365;-1.756;110.040;2022-12-19T09:49:23;13.27;;;8.90;;
64907;SDS011;64365;-1.756;110.040;2022-12-19T09:51:55;14.13;;;9.05;;
64907;SDS011;64365;-1.756;110.040;2022-12-19T09:54:25;13.35;;;10.05;;
64907;SDS011;64365;-1.756;110.040;2022-12-19T09:56:59;12.00;;;9.05;;
64907;SDS011;64365;-1.756;110.040;2022-12-19T09:59:30;12.25;;;8.50;;
64907;SDS011;64365;-1.756;110.040;2022-12-19T10:02:01;15.30;;;9.75;;
64907;SDS011;64365;-1.756;110.040;2022-12-19T10:04:41;13.63;;;9.00;;
64907;SDS011;64365;-1.756;110.040;2022-12-19T10:07:16;13.88;;;9.35;;
64907;SDS011;64365;-1.756;110.040;2022-12-19T10:09:45;15.00;;;9.13;;
64907;SDS011;64365;-1.756;110.040;2022-12-19T10:12:23;11.85;;;8.98;;
64907;SDS011;64365;-1.756;110.040;2022-12-19T10:15:02;12.65;;;9.27;;
64907;SDS011;64365;-1.756;110.040;2022-12-19T10:17:36;13.43;;;9.07;;
64907;SDS011;64365;-1.756;110.040;2022-12-19T10:20:18;13.60;;;8.77;;
64907;SDS011;64365;-1.756;110.040;2022-12-19T10:22:55;10.93;;;8.30;;
64907;SDS011;64365;-1.756;110.040;2022-12-19T10:25:35;13.48;;;9.23;;
64907;SDS011;64365;-1.756;110.040;2022-12-19T10:28:17;12.65;;;8.80;;
64907;SDS011;64365;-1.756;110.040;2022-12-19T10:30:57;12.82;;;8.60;;
64907;SDS011;64365;-1.756;110.040;2022-12-19T10:33:31;13.05;;;8.93;;
64907;SDS011;64365;-1.756;110.040;2022-12-19T10:36:07;15.02;;;9.40;;
64907;SDS011;64365;-1.756;110.040;2022-12-19T10:38:37;18.80;;;8.77;;
64907;SDS011;64365;-1.756;110.040;2022-12-19T10:41:14;13.57;;;8.75;;
64907;SDS011;64365;-1.756;110.040;2022-12-19T10:43:47;12.90;;;8.70;;
64907;SDS011;64365;-1.756;110.040;2022-12-19T10:46:22;13.65;;;8.43;;
64907;SDS011;64365;-1.756;110.040;2022-12-19T10:48:59;12.88;;;8.50;;
64907;SDS011;64365;-1.756;110.040;2022-12-19T10:51:27;11.25;;;7.80;;
64907;SDS011;64365;-1.756;110.040;2022-12-19T10:53:58;14.40;;;9.00;;
64907;SDS011;64365;-1.756;110.040;2022-12-19T10:56:25;12.13;;;7.88;;
64907;SDS011;64365;-1.756;110.040;2022-12-19T10:58:58;11.93;;;8.23;;
64907;SDS011;64365;-1.756;110.040;2022-12-19T11:01:26;11.80;;;8.25;;
64907;SDS011;64365;-1.756;110.040;2022-12-19T11:06:41;11.55;;;8.68;;
64907;SDS011;64365;-1.756;110.040;2022-12-19T11:09:14;13.30;;;8.80;;
64907;SDS011;64365;-1.756;110.040;2022-12-19T11:11:43;10.80;;;7.73;;
64907;SDS011;64365;-1.756;110.040;2022-12-19T11:14:18;10.60;;;7.65;;
64907;SDS011;64365;-1.756;110.040;2022-12-19T11:16:47;11.43;;;8.02;;
64907;SDS011;64365;-1.756;110.040;2022-12-19T11:19:21;10.95;;;7.53;;
64907;SDS011;64365;-1.756;110.040;2022-12-19T11:21:55;13.07;;;8.65;;
64907;SDS011;64365;-1.756;110.040;2022-12-19T11:24:24;11.18;;;7.65;;
64907;SDS011;64365;-1.756;110.040;2022-12-19T11:26:56;11.70;;;7.82;;
64907;SDS011;64365;-1.756;110.040;2022-12-19T11:29:25;12.30;;;8.05;;
64907;SDS011;64365;-1.756;110.040;2022-12-19T11:32:02;12.75;;;8.70;;
64907;SDS011;64365;-1.756;110.040;2022-12-19T11:34:30;11.82;;;8.50;;
64907;SDS011;64365;-1.756;110.040;2022-12-19T11:37:02;11.77;;;8.02;;
64907;SDS011;64365;-1.756;110.040;2022-12-19T11:39:40;12.45;;;7.90;;
64907;SDS011;64365;-1.756;110.040;2022-12-19T11:42:12;10.55;;;7.85;;
64907;SDS011;64365;-1.756;110.040;2022-12-19T11:44:50;10.98;;;7.72;;
64907;SDS011;64365;-1.756;110.040;2022-12-19T11:47:27;11.10;;;8.20;;
64907;SDS011;64365;-1.756;110.040;2022-12-19T11:50:01;16.42;;;7.95;;
64907;SDS011;64365;-1.756;110.040;2022-12-19T11:52:35;12.95;;;9.27;;
64907;SDS011;64365;-1.756;110.040;2022-12-19T11:55:09;10.93;;;7.72;;
64907;SDS011;64365;-1.756;110.040;2022-12-19T11:57:43;12.27;;;8.02;;
64907;SDS011;64365;-1.756;110.040;2022-12-19T12:00:13;12.18;;;8.05;;
64907;SDS011;64365;-1.756;110.040;2022-12-19T12:05:41;12.00;;;7.97;;
64907;SDS011;64365;-1.756;110.040;2022-12-19T12:11:07;13.82;;;8.43;;
64907;SDS011;64365;-1.756;110.040;2022-12-19T12:13:51;11.55;;;7.78;;
64907;SDS011;64365;-1.756;110.040;2022-12-19T12:16:35;9.98;;;7.97;;
64907;SDS011;64365;-1.756;110.040;2022-12-19T12:19:10;12.18;;;8.30;;
64907;SDS011;64365;-1.756;110.040;2022-12-19T12:21:45;12.73;;;7.32;;
64907;SDS011;64365;-1.756;110.040;2022-12-19T12:24:24;11.23;;;8.07;;
64907;SDS011;64365;-1.756;110.040;2022-12-19T12:27:04;11.88;;;7.25;;
64907;SDS011;64365;-1.756;110.040;2022-12-19T12:29:41;12.32;;;7.95;;
64907;SDS011;64365;-1.756;110.040;2022-12-19T12:32:25;10.52;;;7.03;;
64907;SDS011;64365;-1.756;110.040;2022-12-19T12:35:13;13.80;;;7.20;;
64907;SDS011;64365;-1.756;110.040;2022-12-19T12:37:51;12.40;;;7.53;;
64907;SDS011;64365;-1.756;110.040;2022-12-19T12:40:36;13.02;;;8.07;;
64907;SDS011;64365;-1.756;110.040;2022-12-19T12:43:21;13.18;;;7.55;;
64907;SDS011;64365;-1.756;110.040;2022-12-19T12:46:02;10.80;;;7.78;;
64907;SDS011;64365;-1.756;110.040;2022-12-19T12:48:32;12.13;;;7.25;;
64907;SDS011;64365;-1.756;110.040;2022-12-19T12:51:02;10.35;;;7.25;;
64907;SDS011;64365;-1.756;110.040;2022-12-19T12:53:31;14.55;;;8.35;;
64907;SDS011;64365;-1.756;110.040;2022-12-19T12:56:00;10.88;;;7.43;;
64907;SDS011;64365;-1.756;110.040;2022-12-19T13:01:47;15.15;;;7.78;;
64907;SDS011;64365;-1.756;110.040;2022-12-19T13:04:24;9.45;;;6.70;;
64907;SDS011;64365;-1.756;110.040;2022-12-19T13:09:53;11.68;;;7.00;;
64907;SDS011;64365;-1.756;110.040;2022-12-19T13:12:32;9.35;;;7.05;;
64907;SDS011;64365;-1.756;110.040;2022-12-19T13:15:30;12.77;;;7.47;;
64907;SDS011;64365;-1.756;110.040;2022-12-19T13:18:12;11.40;;;7.00;;
64907;SDS011;64365;-1.756;110.040;2022-12-19T13:20:55;8.85;;;6.97;;
64907;SDS011;64365;-1.756;110.040;2022-12-19T13:23:23;11.55;;;7.63;;
64907;SDS011;64365;-1.756;110.040;2022-12-19T13:29:37;10.80;;;7.20;;
64907;SDS011;64365;-1.756;110.040;2022-12-19T13:32:18;9.05;;;6.50;;
64907;SDS011;64365;-1.756;110.040;2022-12-19T13:34:55;11.25;;;7.20;;
64907;SDS011;64365;-1.756;110.040;2022-12-19T13:37:29;11.98;;;7.28;;
64907;SDS011;64365;-1.756;110.040;2022-12-19T13:40:14;12.98;;;6.80;;
64907;SDS011;64365;-1.756;110.040;2022-12-19T13:42:51;10.98;;;7.63;;
64907;SDS011;64365;-1.756;110.040;2022-12-19T13:45:51;9.38;;;6.72;;
64907;SDS011;64365;-1.756;110.040;2022-12-19T13:48:26;13.13;;;8.13;;
64907;SDS011;64365;-1.756;110.040;2022-12-19T13:50:55;12.75;;;6.88;;
64907;SDS011;64365;-1.756;110.040;2022-12-19T13:53:27;11.30;;;6.85;;
64907;SDS011;64365;-1.756;110.040;2022-12-19T13:55:57;11.63;;;6.85;;
64907;SDS011;64365;-1.756;110.040;2022-12-19T13:58:26;13.25;;;6.60;;
64907;SDS011;64365;-1.756;110.040;2022-12-19T14:00:55;11.25;;;6.95;;
64907;SDS011;64365;-1.756;110.040;2022-12-19T14:03:27;9.60;;;6.30;;
64907;SDS011;64365;-1.756;110.040;2022-12-19T14:06:00;10.35;;;6.85;;
64907;SDS011;64365;-1.756;110.040;2022-12-19T14:08:36;10.23;;;6.60;;
64907;SDS011;64365;-1.756;110.040;2022-12-19T14:11:06;9.15;;;6.35;;
64907;SDS011;64365;-1.756;110.040;2022-12-19T14:13:34;9.30;;;6.25;;
64907;SDS011;64365;-1.756;110.040;2022-12-19T14:16:27;11.45;;;6.75;;
64907;SDS011;64365;-1.756;110.040;2022-12-19T14:18:53;10.40;;;7.10;;
64907;SDS011;64365;-1.756;110.040;2022-12-19T14:21:22;9.88;;;6.53;;
64907;SDS011;64365;-1.756;110.040;2022-12-19T14:23:52;10.85;;;6.60;;
64907;SDS011;64365;-1.756;110.040;2022-12-19T14:26:34;9.48;;;6.28;;
64907;SDS011;64365;-1.756;110.040;2022-12-19T14:29:02;10.77;;;6.72;;
64907;SDS011;64365;-1.756;110.040;2022-12-19T14:31:31;7.32;;;5.70;;
64907;SDS011;64365;-1.756;110.040;2022-12-19T14:34:02;9.80;;;6.80;;
64907;SDS011;64365;-1.756;110.040;2022-12-19T14:36:30;9.52;;;6.63;;
64907;SDS011;64365;-1.756;110.040;2022-12-19T14:39:00;10.43;;;6.32;;
64907;SDS011;64365;-1.756;110.040;2022-12-19T14:41:35;7.95;;;5.22;;
64907;SDS011;64365;-1.756;110.040;2022-12-19T14:44:22;11.77;;;6.55;;
64907;SDS011;64365;-1.756;110.040;2022-12-19T14:46:59;8.85;;;5.78;;
64907;SDS011;64365;-1.756;110.040;2022-12-19T14:49:30;9.43;;;6.32;;
64907;SDS011;64365;-1.756;110.040;2022-12-19T14:52:01;11.00;;;6.40;;
64907;SDS011;64365;-1.756;110.040;2022-12-19T14:54:30;10.20;;;6.10;;
64907;SDS011;64365;-1.756;110.040;2022-12-19T14:56:57;9.63;;;6.05;;
64907;SDS011;64365;-1.756;110.040;2022-12-19T14:59:26;10.30;;;5.85;;